createdAt,value
2023-04-29T00:02:14.077Z,14.44
2023-04-29T00:04:40.733Z,14.44
2023-04-29T00:07:08.878Z,14.45
2023-04-29T00:09:36.114Z,14.44
2023-04-29T00:12:02.537Z,14.42
2023-04-29T00:14:28.984Z,14.39
2023-04-29T00:16:55.441Z,14.37
2023-04-29T00:19:21.867Z,14.33
2023-04-29T00:21:48.363Z,14.29
2023-04-29T00:24:14.693Z,14.26
2023-04-29T00:26:41.254Z,14.22
2023-04-29T00:29:07.681Z,14.18
2023-04-29T00:31:34.125Z,14.14
2023-04-29T00:34:00.611Z,14.10
2023-04-29T00:36:28.540Z,14.07
2023-04-29T00:38:55.081Z,14.03
2023-04-29T00:41:21.524Z,14.01
2023-04-29T00:43:47.963Z,13.98
2023-04-29T00:46:14.392Z,13.97
2023-04-29T00:48:41.442Z,13.94
2023-04-29T00:51:08.574Z,13.92
2023-04-29T00:53:35.654Z,13.90
2023-04-29T00:56:02.865Z,13.88
2023-04-29T00:58:35.259Z,13.87
2023-04-29T01:01:03.667Z,13.84
2023-04-29T01:03:31.674Z,13.81
2023-04-29T01:06:32.115Z,13.80
2023-04-29T01:09:14.217Z,13.78
2023-04-29T01:11:54.296Z,13.74
2023-04-29T01:14:21.857Z,13.72
2023-04-29T01:16:52.052Z,13.72
2023-04-29T01:19:38.779Z,13.72
2023-04-29T01:22:05.199Z,13.71
2023-04-29T01:24:31.633Z,13.69
2023-04-29T01:27:09.654Z,13.69
2023-04-29T01:29:45.719Z,13.67
2023-04-29T01:32:19.119Z,13.66
2023-04-29T01:34:59.775Z,13.66
2023-04-29T01:37:41.911Z,13.64
2023-04-29T01:40:25.504Z,13.63
2023-04-29T01:43:00.460Z,13.62
2023-04-29T01:45:28.764Z,13.58
2023-04-29T01:47:58.725Z,13.57
2023-04-29T01:50:25.165Z,13.54
2023-04-29T01:52:51.527Z,13.53
2023-04-29T01:55:18.052Z,13.52
2023-04-29T01:57:44.478Z,13.51
2023-04-29T02:00:11.841Z,13.51
2023-04-29T02:02:38.434Z,13.52
2023-04-29T02:05:05.130Z,13.51
2023-04-29T02:07:31.639Z,13.52
2023-04-29T02:09:58.101Z,13.51
2023-04-29T02:12:24.516Z,13.50
2023-04-29T02:14:54.265Z,13.51
2023-04-29T02:17:20.762Z,13.50
2023-04-29T02:19:47.210Z,13.48
2023-04-29T02:22:13.572Z,13.49
2023-04-29T02:24:40.216Z,13.48
2023-04-29T02:27:06.830Z,13.47
2023-04-29T02:29:33.389Z,13.47
2023-04-29T02:31:59.864Z,13.47
2023-04-29T02:34:26.251Z,13.48
2023-04-29T02:36:52.658Z,13.49
2023-04-29T02:39:20.544Z,13.48
2023-04-29T02:41:46.948Z,13.50
2023-04-29T02:44:13.412Z,13.49
2023-04-29T02:46:42.505Z,13.49
2023-04-29T02:49:08.835Z,13.50
2023-04-29T02:51:35.380Z,13.49
2023-04-29T02:54:01.806Z,13.50
2023-04-29T02:56:29.362Z,13.51
2023-04-29T02:58:55.807Z,13.49
2023-04-29T03:01:22.452Z,13.50
2023-04-29T03:03:49.240Z,13.50
2023-04-29T03:06:16.129Z,13.48
2023-04-29T03:08:43.166Z,13.47
2023-04-29T03:11:09.512Z,13.45
2023-04-29T03:13:36.053Z,13.41
2023-04-29T03:16:02.590Z,13.38
2023-04-29T03:18:28.921Z,13.36
2023-04-29T03:20:55.424Z,13.32
2023-04-29T03:23:22.401Z,13.29
2023-04-29T03:25:48.834Z,13.25
2023-04-29T03:28:15.366Z,13.22
2023-04-29T03:30:42.210Z,13.17
2023-04-29T03:33:08.606Z,13.12
2023-04-29T03:35:35.076Z,13.07
2023-04-29T03:38:01.615Z,13.01
2023-04-29T03:40:28.018Z,12.97
2023-04-29T03:42:54.451Z,12.93
2023-04-29T03:45:21.216Z,12.91
2023-04-29T03:47:47.661Z,12.87
2023-04-29T03:50:14.078Z,12.87
2023-04-29T03:52:40.516Z,12.84
2023-04-29T03:55:07.263Z,12.83
2023-04-29T03:57:33.601Z,12.82
2023-04-29T03:59:59.935Z,12.81
2023-04-29T04:02:26.611Z,12.78
2023-04-29T04:04:55.149Z,12.75
2023-04-29T04:07:21.880Z,12.73
2023-04-29T04:09:48.296Z,12.71
2023-04-29T04:12:14.650Z,12.68
2023-04-29T04:14:41.196Z,12.65
2023-04-29T04:17:07.546Z,12.63
2023-04-29T04:19:33.950Z,12.63
2023-04-29T04:22:00.402Z,12.62
2023-04-29T04:24:26.861Z,12.61
2023-04-29T04:26:53.237Z,12.62
2023-04-29T04:29:19.673Z,12.60
2023-04-29T04:31:47.209Z,12.59
2023-04-29T04:34:13.818Z,12.59
2023-04-29T04:36:40.220Z,12.59
2023-04-29T04:39:06.754Z,12.59
2023-04-29T04:41:33.412Z,12.60
2023-04-29T04:43:59.820Z,12.61
2023-04-29T04:46:26.270Z,12.62
2023-04-29T04:48:52.685Z,12.64
2023-04-29T04:51:19.155Z,12.66
2023-04-29T04:53:45.670Z,12.68
2023-04-29T04:56:12.111Z,12.71
2023-04-29T04:58:38.464Z,12.74
2023-04-29T05:01:05.006Z,12.76
2023-04-29T05:03:31.700Z,12.77
2023-04-29T05:06:00.305Z,12.80
2023-04-29T05:08:27.008Z,12.78
2023-04-29T05:10:54.271Z,12.76
2023-04-29T05:13:21.138Z,12.73
2023-04-29T05:15:47.687Z,12.72
2023-04-29T05:18:14.108Z,12.71
2023-04-29T05:20:40.525Z,12.69
2023-04-29T05:23:07.106Z,12.68
2023-04-29T05:25:33.521Z,12.67
2023-04-29T05:27:59.954Z,12.67
2023-04-29T05:30:27.060Z,12.67
2023-04-29T05:32:53.599Z,12.67
2023-04-29T05:35:20.083Z,12.67
2023-04-29T05:37:46.643Z,12.67
2023-04-29T05:40:13.233Z,12.66
2023-04-29T05:42:39.663Z,12.65
2023-04-29T05:45:06.721Z,12.63
2023-04-29T05:47:33.360Z,12.62
2023-04-29T05:49:59.795Z,12.60
2023-04-29T05:52:26.363Z,12.61
2023-04-29T05:54:52.892Z,12.61
2023-04-29T05:57:19.307Z,12.63
2023-04-29T05:59:45.843Z,12.65
2023-04-29T06:02:12.480Z,12.66
2023-04-29T06:04:41.163Z,12.69
2023-04-29T06:07:09.260Z,12.69
2023-04-29T06:09:36.926Z,12.68
2023-04-29T06:12:03.747Z,12.68
2023-04-29T06:14:30.294Z,12.67
2023-04-29T06:16:56.912Z,12.66
2023-04-29T06:19:24.903Z,12.65
2023-04-29T06:21:51.519Z,12.66
2023-04-29T06:24:17.978Z,12.67
2023-04-29T06:26:44.508Z,12.68
2023-04-29T06:29:10.938Z,12.69
2023-04-29T06:31:38.256Z,12.69
2023-04-29T06:34:04.842Z,12.68
2023-04-29T06:36:32.202Z,12.67
2023-04-29T06:38:58.847Z,12.66
2023-04-29T06:41:25.505Z,12.66
2023-04-29T06:43:51.918Z,12.67
2023-04-29T06:46:18.360Z,12.70
2023-04-29T06:48:44.880Z,12.76
2023-04-29T06:51:11.381Z,12.81
2023-04-29T06:53:37.766Z,12.88
2023-04-29T06:56:06.645Z,12.94
2023-04-29T06:58:33.211Z,12.99
2023-04-29T07:00:59.791Z,13.05
2023-04-29T07:03:26.671Z,13.08
2023-04-29T07:05:53.208Z,13.12
2023-04-29T07:08:19.630Z,13.18
2023-04-29T07:10:54.582Z,13.24
2023-04-29T07:13:21.157Z,13.29
2023-04-29T07:15:47.544Z,13.34
2023-04-29T07:18:14.053Z,13.40
2023-04-29T07:20:40.496Z,13.46
2023-04-29T07:23:06.942Z,13.51
2023-04-29T07:25:34.123Z,13.57
2023-04-29T07:28:00.564Z,13.65
2023-04-29T07:30:27.255Z,13.72
2023-04-29T07:32:53.746Z,13.79
2023-04-29T07:35:20.787Z,13.87
2023-04-29T07:37:47.268Z,13.95
2023-04-29T07:40:13.820Z,14.03
2023-04-29T07:42:40.359Z,14.11
2023-04-29T07:45:07.439Z,14.17
2023-04-29T07:47:33.965Z,14.24
2023-04-29T07:50:00.902Z,14.30
2023-04-29T07:52:27.422Z,14.37
2023-04-29T07:54:56.126Z,14.45
2023-04-29T07:57:22.663Z,14.52
2023-04-29T07:59:55.414Z,14.61
2023-04-29T08:02:22.060Z,14.67
2023-04-29T08:04:49.237Z,14.76
2023-04-29T08:07:15.828Z,14.83
2023-04-29T08:09:42.189Z,14.88
2023-04-29T08:12:09.121Z,14.90
2023-04-29T08:14:35.748Z,14.91
2023-04-29T08:17:02.096Z,14.91
2023-04-29T08:19:28.538Z,14.95
2023-04-29T08:21:55.078Z,14.95
2023-04-29T08:24:22.709Z,14.97
2023-04-29T08:26:49.084Z,14.99
2023-04-29T08:29:16.120Z,15.01
2023-04-29T08:31:42.588Z,15.04
2023-04-29T08:34:08.966Z,15.06
2023-04-29T08:36:36.967Z,15.11
2023-04-29T08:39:03.373Z,15.15
2023-04-29T08:41:32.411Z,15.21
2023-04-29T08:44:01.025Z,15.25
2023-04-29T08:46:27.793Z,15.30
2023-04-29T08:48:56.442Z,15.36
2023-04-29T08:51:22.904Z,15.42
2023-04-29T08:53:49.370Z,15.47
2023-04-29T08:56:21.774Z,15.54
2023-04-29T08:58:54.351Z,15.60
2023-04-29T09:01:23.061Z,15.68
2023-04-29T09:04:15.855Z,15.79
2023-04-29T09:06:42.301Z,15.87
2023-04-29T09:09:09.573Z,15.93
2023-04-29T09:11:36.995Z,15.97
2023-04-29T09:14:04.393Z,16.01
2023-04-29T09:16:31.119Z,16.08
2023-04-29T09:18:57.721Z,16.12
2023-04-29T09:21:26.022Z,16.19
2023-04-29T09:23:57.488Z,16.28
2023-04-29T09:26:25.055Z,16.34
2023-04-29T09:29:08.150Z,16.44
2023-04-29T09:31:35.082Z,16.53
2023-04-29T09:34:01.558Z,16.61
2023-04-29T09:36:49.084Z,16.75
2023-04-29T09:39:20.711Z,16.85
2023-04-29T09:41:53.216Z,16.93
2023-04-29T09:44:29.207Z,16.99
2023-04-29T09:47:05.041Z,17.03
2023-04-29T09:49:45.959Z,17.09
2023-04-29T09:52:15.096Z,17.13
2023-04-29T09:54:42.457Z,17.16
2023-04-29T09:57:10.706Z,17.20
2023-04-29T09:59:39.640Z,17.23
2023-04-29T10:02:15.398Z,17.30
2023-04-29T10:04:44.389Z,17.34
2023-04-29T10:07:14.868Z,17.41
2023-04-29T10:09:41.583Z,17.46
2023-04-29T10:12:08.370Z,17.49
2023-04-29T10:14:41.800Z,17.51
2023-04-29T10:17:11.491Z,17.53
2023-04-29T10:19:53.602Z,17.56
2023-04-29T10:22:36.112Z,17.59
2023-04-29T10:25:05.920Z,17.61
2023-04-29T10:27:33.995Z,17.64
2023-04-29T10:30:02.255Z,17.69
2023-04-29T10:32:36.959Z,17.74
2023-04-29T10:35:13.685Z,17.82
2023-04-29T10:37:44.618Z,17.88
2023-04-29T10:40:22.319Z,17.92
2023-04-29T10:42:52.844Z,17.95
2023-04-29T10:45:31.706Z,17.98
2023-04-29T10:48:09.055Z,18.01
2023-04-29T10:50:39.750Z,18.03
2023-04-29T10:53:06.179Z,18.09
2023-04-29T10:55:36.600Z,18.15
2023-04-29T10:58:04.345Z,18.16
2023-04-29T11:00:35.503Z,18.19
2023-04-29T11:03:05.589Z,18.17
2023-04-29T11:05:34.377Z,18.15
2023-04-29T11:08:16.365Z,18.13
2023-04-29T11:10:43.927Z,18.12
2023-04-29T11:13:30.544Z,18.17
2023-04-29T11:16:11.320Z,18.22
2023-04-29T11:19:03.907Z,18.27
2023-04-29T11:21:31.043Z,18.29
2023-04-29T11:23:57.636Z,18.31
2023-04-29T11:26:24.684Z,18.36
2023-04-29T11:28:52.096Z,18.39
2023-04-29T11:31:18.445Z,18.42
2023-04-29T11:33:44.907Z,18.46
2023-04-29T11:36:11.542Z,18.47
2023-04-29T11:38:40.805Z,18.48
2023-04-29T11:41:07.275Z,18.46
2023-04-29T11:43:33.609Z,18.40
2023-04-29T11:45:59.969Z,18.31
2023-04-29T11:48:26.553Z,18.26
2023-04-29T11:50:59.711Z,18.23
2023-04-29T11:53:27.785Z,18.17
2023-04-29T11:55:55.230Z,18.15
2023-04-29T11:58:22.504Z,18.14
2023-04-29T12:00:49.709Z,18.13
2023-04-29T12:03:18.000Z,18.13
2023-04-29T12:05:51.932Z,18.15
2023-04-29T12:08:26.426Z,18.19
2023-04-29T12:10:54.697Z,18.26
2023-04-29T12:13:23.638Z,18.39
2023-04-29T12:15:51.442Z,18.55
2023-04-29T12:18:19.525Z,18.70
2023-04-29T12:20:46.084Z,18.81
2023-04-29T12:23:18.925Z,18.90
2023-04-29T12:25:53.095Z,18.96
2023-04-29T12:28:20.041Z,18.99
2023-04-29T12:30:47.330Z,19.04
2023-04-29T12:33:21.885Z,19.07
2023-04-29T12:35:52.114Z,19.09
2023-04-29T12:38:27.719Z,19.10
2023-04-29T12:40:56.392Z,19.10
2023-04-29T12:43:29.987Z,19.12
2023-04-29T12:46:02.778Z,19.13
2023-04-29T12:48:46.500Z,19.14
2023-04-29T12:51:13.257Z,19.12
2023-04-29T12:53:39.708Z,19.14
2023-04-29T12:56:06.822Z,19.14
2023-04-29T12:58:34.754Z,19.12
2023-04-29T13:01:02.007Z,19.11
2023-04-29T13:03:28.965Z,19.08
2023-04-29T13:05:55.902Z,19.10
2023-04-29T13:08:22.985Z,19.11
2023-04-29T13:10:49.627Z,19.13
2023-04-29T13:13:16.218Z,19.14
2023-04-29T13:15:42.583Z,19.15
2023-04-29T13:18:08.992Z,19.20
2023-04-29T13:20:41.130Z,19.26
2023-04-29T13:23:08.441Z,19.35
2023-04-29T13:25:34.776Z,19.40
2023-04-29T13:28:01.106Z,19.43
2023-04-29T13:30:27.554Z,19.43
2023-04-29T13:32:56.752Z,19.41
2023-04-29T13:35:29.584Z,19.38
2023-04-29T13:37:56.949Z,19.33
2023-04-29T13:40:27.488Z,19.29
2023-04-29T13:43:02.160Z,19.27
2023-04-29T13:45:30.817Z,19.27
2023-04-29T13:48:09.446Z,19.30
2023-04-29T13:51:04.820Z,19.37
2023-04-29T13:56:58.214Z,19.40
2023-04-29T14:01:44.152Z,19.25
2023-04-29T14:04:03.364Z,19.15
2023-04-29T14:06:32.176Z,19.07
2023-04-29T14:09:00.480Z,19.02
2023-04-29T14:11:27.598Z,19.02
2023-04-29T14:13:53.935Z,19.03
2023-04-29T14:16:21.603Z,19.09
2023-04-29T14:18:47.948Z,19.15
2023-04-29T14:21:14.492Z,19.21
2023-04-29T14:23:41.156Z,19.27
2023-04-29T14:26:22.997Z,19.27
2023-04-29T14:28:57.646Z,19.26
2023-04-29T14:31:28.439Z,19.24
2023-04-29T14:33:55.778Z,19.22
2023-04-29T14:36:22.248Z,19.20
2023-04-29T14:38:48.885Z,19.15
2023-04-29T14:41:15.879Z,19.10
2023-04-29T14:43:42.829Z,19.05
2023-04-29T14:46:09.492Z,19.00
2023-04-29T14:48:36.006Z,18.97
2023-04-29T14:51:02.426Z,18.94
2023-04-29T14:53:28.774Z,18.93
2023-04-29T14:55:55.305Z,18.94
2023-04-29T14:58:21.703Z,18.94
2023-04-29T15:00:48.122Z,18.96
2023-04-29T15:03:22.075Z,18.99
2023-04-29T15:05:50.656Z,19.06
2023-04-29T15:08:17.958Z,19.16
2023-04-29T15:10:48.285Z,19.24
2023-04-29T15:13:14.811Z,19.27
2023-04-29T15:15:41.414Z,19.28
2023-04-29T15:18:08.738Z,19.28
2023-04-29T15:20:36.957Z,19.27
2023-04-29T15:23:04.423Z,19.24
2023-04-29T15:25:33.563Z,19.18
2023-04-29T15:28:00.353Z,19.11
2023-04-29T15:30:27.415Z,19.02
2023-04-29T15:32:55.232Z,18.94
2023-04-29T15:35:21.870Z,18.88
2023-04-29T15:37:48.429Z,18.82
2023-04-29T15:40:14.921Z,18.77
2023-04-29T15:42:41.463Z,18.74
2023-04-29T15:45:11.264Z,18.71
2023-04-29T15:47:37.798Z,18.69
2023-04-29T15:50:04.496Z,18.66
2023-04-29T15:52:31.286Z,18.63
2023-04-29T15:54:58.328Z,18.60
2023-04-29T15:57:25.724Z,18.56
2023-04-29T15:59:52.333Z,18.49
2023-04-29T16:02:20.276Z,18.44
2023-04-29T16:04:47.021Z,18.38
2023-04-29T16:07:13.719Z,18.33
2023-04-29T16:09:40.128Z,18.28
2023-04-29T16:12:06.564Z,18.26
2023-04-29T16:14:32.903Z,18.23
2023-04-29T16:17:00.382Z,18.22
2023-04-29T16:19:26.948Z,18.20
2023-04-29T16:21:53.300Z,18.19
2023-04-29T16:24:19.707Z,18.18
2023-04-29T16:26:47.973Z,18.17
2023-04-29T16:29:14.322Z,18.16
2023-04-29T16:31:40.852Z,18.14
2023-04-29T16:34:07.339Z,18.12
2023-04-29T16:36:33.812Z,18.10
2023-04-29T16:39:00.242Z,18.09
2023-04-29T16:41:26.836Z,18.10
2023-04-29T16:43:54.019Z,18.14
2023-04-29T16:46:20.585Z,18.21
2023-04-29T16:48:47.298Z,18.26
2023-04-29T16:51:14.015Z,18.31
2023-04-29T16:53:40.556Z,18.34
2023-04-29T16:56:07.243Z,18.40
2023-04-29T16:58:33.817Z,18.52
2023-04-29T17:01:00.325Z,18.62
2023-04-29T17:03:26.845Z,18.73
2023-04-29T17:05:53.299Z,18.85
2023-04-29T17:08:19.971Z,18.96
2023-04-29T17:10:46.692Z,19.08
2023-04-29T17:13:13.097Z,19.20
2023-04-29T17:15:40.231Z,19.30
2023-04-29T17:18:06.845Z,19.37
2023-04-29T17:20:33.848Z,19.45
2023-04-29T17:23:00.423Z,19.52
2023-04-29T17:25:26.767Z,19.59
2023-04-29T17:27:53.153Z,19.62
2023-04-29T17:30:19.687Z,19.65
2023-04-29T17:32:46.766Z,19.66
2023-04-29T17:35:13.208Z,19.65
2023-04-29T17:37:39.645Z,19.64
2023-04-29T17:40:06.684Z,19.63
2023-04-29T17:42:33.028Z,19.61
2023-04-29T17:44:59.414Z,19.60
2023-04-29T17:47:25.866Z,19.58
2023-04-29T17:49:53.153Z,19.56
2023-04-29T17:52:21.421Z,19.55
2023-04-29T17:54:50.729Z,19.53
2023-04-29T17:57:17.249Z,19.52
2023-04-29T17:59:43.654Z,19.51
2023-04-29T18:02:10.140Z,19.47
2023-04-29T18:04:37.290Z,19.43
2023-04-29T18:07:03.872Z,19.38
2023-04-29T18:09:30.431Z,19.28
2023-04-29T18:11:56.766Z,19.19
2023-04-29T18:14:23.430Z,19.12
2023-04-29T18:16:49.937Z,19.05
2023-04-29T18:19:16.350Z,18.98
2023-04-29T18:21:42.825Z,18.89
2023-04-29T18:24:09.167Z,18.79
2023-04-29T18:26:35.792Z,18.66
2023-04-29T18:29:02.260Z,18.50
2023-04-29T18:31:29.259Z,18.29
2023-04-29T18:33:55.695Z,18.07
2023-04-29T18:36:23.587Z,17.83
2023-04-29T18:38:50.450Z,17.61
2023-04-29T18:41:16.787Z,17.39
2023-04-29T18:43:43.196Z,17.19
2023-04-29T18:46:09.620Z,17.00
2023-04-29T18:48:36.535Z,16.82
2023-04-29T18:51:04.340Z,16.64
2023-04-29T18:53:31.690Z,16.49
2023-04-29T18:55:58.118Z,16.33
2023-04-29T18:58:26.788Z,16.20
2023-04-29T19:00:53.596Z,16.09
2023-04-29T19:03:20.455Z,15.96
2023-04-29T19:05:48.145Z,15.86
2023-04-29T19:08:16.374Z,15.74
2023-04-29T19:10:44.123Z,15.63
2023-04-29T19:13:11.406Z,15.55
2023-04-29T19:15:37.933Z,15.46
2023-04-29T19:18:04.966Z,15.35
2023-04-29T19:20:31.621Z,15.28
2023-04-29T19:22:58.015Z,15.19
2023-04-29T19:25:26.248Z,15.12
2023-04-29T19:27:53.531Z,15.04
2023-04-29T19:30:20.016Z,14.96
2023-04-29T19:32:47.073Z,14.88
2023-04-29T19:35:13.639Z,14.80
2023-04-29T19:37:40.515Z,14.73
2023-04-29T19:40:10.325Z,14.65
2023-04-29T19:42:37.896Z,14.57
2023-04-29T19:45:07.476Z,14.52
2023-04-29T19:47:34.772Z,14.44
2023-04-29T19:50:02.059Z,14.36
2023-04-29T19:52:29.828Z,14.30
2023-04-29T19:54:56.650Z,14.22
2023-04-29T19:57:23.348Z,14.13
2023-04-29T19:59:49.793Z,14.04
2023-04-29T20:02:16.336Z,13.95
2023-04-29T20:04:42.961Z,13.86
2023-04-29T20:07:09.380Z,13.78
2023-04-29T20:09:37.169Z,13.67
2023-04-29T20:12:04.040Z,13.57
2023-04-29T20:14:31.874Z,13.47
2023-04-29T20:17:00.568Z,13.37
2023-04-29T20:19:27.497Z,13.27
2023-04-29T20:21:54.159Z,13.17
2023-04-29T20:24:20.578Z,13.07
2023-04-29T20:26:47.593Z,12.98
2023-04-29T20:29:14.042Z,12.89
2023-04-29T20:31:40.753Z,12.81
2023-04-29T20:34:07.295Z,12.72
2023-04-29T20:36:33.762Z,12.65
2023-04-29T20:39:00.981Z,12.59
2023-04-29T20:41:28.881Z,12.53
2023-04-29T20:43:56.098Z,12.45
2023-04-29T20:46:24.614Z,12.41
2023-04-29T20:48:52.385Z,12.36
2023-04-29T20:51:18.826Z,12.30
2023-04-29T20:53:45.552Z,12.24
2023-04-29T20:56:11.959Z,12.20
2023-04-29T20:58:38.526Z,12.15
2023-04-29T21:01:05.014Z,12.11
2023-04-29T21:03:31.437Z,12.07
2023-04-29T21:05:58.110Z,12.02
2023-04-29T21:08:24.521Z,11.99
2023-04-29T21:10:51.348Z,11.95
2023-04-29T21:13:17.933Z,11.93
2023-04-29T21:15:47.009Z,11.90
2023-04-29T21:18:14.133Z,11.86
2023-04-29T21:20:40.704Z,11.83
2023-04-29T21:23:07.089Z,11.79
2023-04-29T21:25:33.484Z,11.77
2023-04-29T21:27:59.874Z,11.75
2023-04-29T21:30:26.248Z,11.71
2023-04-29T21:32:53.247Z,11.69
2023-04-29T21:35:19.995Z,11.66
2023-04-29T21:37:47.064Z,11.63
2023-04-29T21:40:14.269Z,11.61
2023-04-29T21:42:43.277Z,11.58
2023-04-29T21:45:10.294Z,11.55
2023-04-29T21:47:36.883Z,11.52
2023-04-29T21:50:03.410Z,11.49
2023-04-29T21:52:34.865Z,11.46
2023-04-29T21:55:02.372Z,11.43
2023-04-29T21:57:42.669Z,11.41
2023-04-29T22:00:20.640Z,11.38
2023-04-29T22:02:47.158Z,11.36
2023-04-29T22:05:13.508Z,11.34
2023-04-29T22:07:39.945Z,11.32
2023-04-29T22:10:06.981Z,11.31
2023-04-29T22:12:33.308Z,11.30
2023-04-29T22:14:59.788Z,11.31
2023-04-29T22:17:26.235Z,11.29
2023-04-29T22:19:52.794Z,11.29
2023-04-29T22:22:19.382Z,11.29
2023-04-29T22:24:45.812Z,11.29
2023-04-29T22:27:12.133Z,11.27
2023-04-29T22:29:39.235Z,11.26
2023-04-29T22:32:05.801Z,11.26
2023-04-29T22:34:32.289Z,11.25
2023-04-29T22:36:58.655Z,11.24
2023-04-29T22:39:25.337Z,11.22
2023-04-29T22:41:51.675Z,11.21
2023-04-29T22:44:18.027Z,11.20
2023-04-29T22:46:44.428Z,11.19
2023-04-29T22:49:10.929Z,11.17
2023-04-29T22:51:37.356Z,11.15
2023-04-29T22:54:03.868Z,11.13
2023-04-29T22:56:30.235Z,11.11
2023-04-29T22:58:56.567Z,11.09
2023-04-29T23:01:23.162Z,11.07
2023-04-29T23:03:49.560Z,11.05
2023-04-29T23:06:16.063Z,11.01
2023-04-29T23:08:44.107Z,10.98
2023-04-29T23:11:11.421Z,10.94
2023-04-29T23:13:37.780Z,10.92
2023-04-29T23:16:04.393Z,10.89
2023-04-29T23:18:30.867Z,10.85
2023-04-29T23:20:57.383Z,10.81
2023-04-29T23:23:23.818Z,10.77
2023-04-29T23:25:50.165Z,10.72
2023-04-29T23:28:16.526Z,10.69
2023-04-29T23:30:42.862Z,10.65
2023-04-29T23:33:09.383Z,10.61
2023-04-29T23:35:35.787Z,10.57
2023-04-29T23:38:02.142Z,10.52
2023-04-29T23:40:29.045Z,10.48
2023-04-29T23:42:55.875Z,10.46
2023-04-29T23:45:22.290Z,10.41
2023-04-29T23:47:48.736Z,10.39
2023-04-29T23:50:15.153Z,10.36
2023-04-29T23:52:41.569Z,10.33
2023-04-29T23:55:08.864Z,10.30
2023-04-29T23:57:35.264Z,10.28
